Time;durP1;ratioP1;P1;durP2;ratioP2;P2;SDS_P1;SDS_P2;PMS_P1;PMS_P2;Temp;Humidity;BMP_temperature;BMP_pressure;BME280_temperature;BME280_humidity;BME280_pressure;Samples;Min_cycle;Max_cycle;Signal;HPM_P1;HPM_P2
2022/03/20 00:02:42;0.00;0.00;0.62;0.00;0.00;0.62;2.77;2.50;;;24.50;21.00;;;;;;2231696;62;20867;-51
2022/03/20 00:05:27;0.00;0.00;0.62;0.00;0.00;0.62;2.40;2.10;;;24.50;21.00;;;;;;2231085;62;20371;-57
2022/03/20 00:08:12;0.00;0.00;0.62;0.00;0.00;0.62;3.17;2.83;;;24.50;20.90;;;;;;2232052;62;20406;-51
2022/03/20 00:11:01;0.00;0.00;0.62;0.00;0.00;0.62;3.37;2.60;;;24.50;20.90;;;;;;2231542;62;20713;-54
2022/03/20 00:13:46;0.00;0.00;0.62;0.00;0.00;0.62;5.30;3.20;;;24.50;20.90;;;;;;2233530;62;20390;-53
2022/03/20 00:16:32;0.00;0.00;0.62;0.00;0.00;0.62;3.00;2.70;;;24.40;20.80;;;;;;2231551;62;20423;-56
2022/03/20 00:19:19;0.00;0.00;0.62;0.00;0.00;0.62;4.60;3.50;;;24.50;20.80;;;;;;2231812;62;20370;-53
2022/03/20 00:22:04;0.00;0.00;0.62;0.00;0.00;0.62;4.70;3.40;;;24.40;20.70;;;;;;2231490;62;20390;-55
2022/03/20 00:24:50;0.00;0.00;0.62;0.00;0.00;0.62;4.10;3.17;;;24.40;20.70;;;;;;2231741;62;20374;-53
2022/03/20 00:27:34;0.00;0.00;0.62;0.00;0.00;0.62;5.50;3.80;;;24.40;20.70;;;;;;2231479;62;20363;-54
2022/03/20 00:30:19;0.00;0.00;0.62;0.00;0.00;0.62;3.57;3.27;;;24.40;20.60;;;;;;2231800;62;20411;-56
2022/03/20 00:33:06;0.00;0.00;0.62;0.00;0.00;0.62;5.37;3.57;;;24.40;20.60;;;;;;2231558;62;20484;-56
2022/03/20 00:35:52;0.00;0.00;0.62;0.00;0.00;0.62;3.43;3.13;;;24.30;20.60;;;;;;2233730;62;20372;-56
2022/03/20 00:38:37;0.00;0.00;0.62;0.00;0.00;0.62;5.97;3.30;;;24.30;20.50;;;;;;2231603;62;20852;-57
2022/03/20 00:41:21;0.00;0.00;0.62;0.00;0.00;0.62;4.00;3.00;;;24.30;20.50;;;;;;2231453;62;20911;-55
2022/03/20 00:44:07;0.00;0.00;0.62;0.00;0.00;0.62;3.63;3.30;;;24.20;20.40;;;;;;2231380;62;20485;-56
2022/03/20 00:46:51;0.00;0.00;0.62;0.00;0.00;0.62;4.27;3.43;;;24.20;20.50;;;;;;2231803;62;20451;-55
2022/03/20 00:49:36;0.00;0.00;0.62;0.00;0.00;0.62;4.03;3.27;;;24.20;20.40;;;;;;2231253;62;20372;-55
2022/03/20 00:52:23;0.00;0.00;0.62;0.00;0.00;0.62;3.33;3.00;;;24.20;20.50;;;;;;2231932;62;20423;-56
2022/03/20 00:55:08;0.00;0.00;0.62;0.00;0.00;0.62;3.47;3.10;;;24.20;20.40;;;;;;2231719;62;20371;-57
2022/03/20 00:57:53;0.00;0.00;0.62;0.00;0.00;0.62;6.37;3.80;;;24.20;20.40;;;;;;2231405;62;20371;-58
2022/03/20 01:00:37;0.00;0.00;0.62;0.00;0.00;0.62;4.37;3.57;;;24.20;20.40;;;;;;2231526;62;20795;-54
2022/03/20 01:03:22;0.00;0.00;0.62;0.00;0.00;0.62;4.13;3.37;;;24.10;20.30;;;;;;2231551;62;20385;-53
2022/03/20 01:06:07;0.00;0.00;0.62;0.00;0.00;0.62;4.80;4.23;;;24.10;20.30;;;;;;2231723;62;20386;-58
2022/03/20 01:08:53;0.00;0.00;0.62;0.00;0.00;0.62;4.10;3.70;;;24.10;20.30;;;;;;2231866;62;20595;-52
2022/03/20 01:11:38;0.00;0.00;0.62;0.00;0.00;0.62;3.93;3.40;;;24.10;20.30;;;;;;2231842;62;20436;-56
2022/03/20 01:14:24;0.00;0.00;0.62;0.00;0.00;0.62;3.87;3.50;;;24.00;20.20;;;;;;2231908;62;20370;-59
2022/03/20 01:17:09;0.00;0.00;0.62;0.00;0.00;0.62;5.40;4.60;;;24.00;20.20;;;;;;2231196;62;20697;-58
2022/03/20 01:19:54;0.00;0.00;0.62;0.00;0.00;0.62;4.20;3.80;;;24.00;20.20;;;;;;2231152;62;20942;-56
2022/03/20 01:22:39;0.00;0.00;0.62;0.00;0.00;0.62;5.00;3.90;;;24.00;20.20;;;;;;2231695;62;20590;-57
2022/03/20 01:25:25;0.00;0.00;0.62;0.00;0.00;0.62;5.00;4.00;;;24.00;20.20;;;;;;2231553;62;20375;-57
2022/03/20 01:28:09;0.00;0.00;0.62;0.00;0.00;0.62;5.20;3.83;;;23.90;20.10;;;;;;2231427;62;20472;-58
2022/03/20 01:30:55;0.00;0.00;0.62;0.00;0.00;0.62;5.17;4.67;;;23.90;20.10;;;;;;2230810;62;20982;-56
2022/03/20 01:33:41;0.00;0.00;0.62;0.00;0.00;0.62;4.70;4.20;;;23.90;20.10;;;;;;2233691;62;20931;-56
2022/03/20 01:36:27;0.00;0.00;0.62;0.00;0.00;0.62;4.63;3.60;;;23.90;20.00;;;;;;2231926;62;20412;-58
2022/03/20 01:39:11;0.00;0.00;0.62;0.00;0.00;0.62;5.87;4.90;;;23.90;20.00;;;;;;2231372;62;20472;-57
2022/03/20 01:41:57;0.00;0.00;0.62;0.00;0.00;0.62;4.80;4.27;;;23.80;20.00;;;;;;2231035;62;20856;-57
2022/03/20 01:44:42;0.00;0.00;0.62;0.00;0.00;0.62;5.60;5.00;;;23.80;20.00;;;;;;2231677;62;20371;-55
2022/03/20 01:47:27;0.00;0.00;0.62;0.00;0.00;0.62;5.37;4.87;;;23.80;20.00;;;;;;2231311;62;20366;-54
2022/03/20 01:50:12;0.00;0.00;0.62;0.00;0.00;0.62;5.07;4.30;;;23.80;20.00;;;;;;2231197;62;20370;-54
2022/03/20 01:52:57;0.00;0.00;0.62;0.00;0.00;0.62;4.90;4.50;;;23.80;20.50;;;;;;2231321;62;20391;-55
2022/03/20 01:55:42;0.00;0.00;0.62;0.00;0.00;0.62;5.20;4.30;;;23.70;20.50;;;;;;2231338;62;20366;-53
2022/03/20 01:58:28;0.00;0.00;0.62;0.00;0.00;0.62;4.83;4.40;;;23.70;20.50;;;;;;2231427;62;20780;-56
2022/03/20 02:01:12;0.00;0.00;0.62;0.00;0.00;0.62;5.27;4.77;;;23.70;19.90;;;;;;2231417;62;20391;-55
2022/03/20 02:03:57;0.00;0.00;0.62;0.00;0.00;0.62;4.67;4.27;;;23.70;19.90;;;;;;2230999;62;20363;-55
2022/03/20 02:06:43;0.00;0.00;0.62;0.00;0.00;0.62;5.57;4.90;;;23.70;19.90;;;;;;2231632;62;20418;-53
2022/03/20 02:09:28;0.00;0.00;0.62;0.00;0.00;0.62;4.73;4.23;;;23.60;19.80;;;;;;2231352;62;20423;-53
2022/03/20 02:12:13;0.00;0.00;0.62;0.00;0.00;0.62;6.90;5.80;;;23.60;19.80;;;;;;2231169;62;20407;-52
2022/03/20 02:15:01;0.00;0.00;0.62;0.00;0.00;0.62;5.63;5.10;;;23.60;19.80;;;;;;2231421;62;20423;-49
2022/03/20 02:17:46;0.00;0.00;0.62;0.00;0.00;0.62;5.17;4.67;;;23.60;19.80;;;;;;2230850;62;20371;-55
2022/03/20 02:20:32;0.00;0.00;0.62;0.00;0.00;0.62;7.37;5.47;;;23.60;19.80;;;;;;2231083;62;20362;-50
2022/03/20 02:23:19;0.00;0.00;0.62;0.00;0.00;0.62;5.90;5.27;;;23.50;19.80;;;;;;2231376;62;20447;-49
2022/03/20 02:26:03;0.00;0.00;0.62;0.00;0.00;0.62;5.53;5.03;;;23.50;19.70;;;;;;2231005;62;20371;-54
2022/03/20 02:28:48;0.00;0.00;0.62;0.00;0.00;0.62;6.30;4.43;;;23.50;19.70;;;;;;2232273;62;20778;-50
2022/03/20 02:31:32;0.00;0.00;0.62;0.00;0.00;0.62;5.70;5.20;;;23.50;19.80;;;;;;2231984;62;20386;-55
2022/03/20 02:34:17;0.00;0.00;0.62;0.00;0.00;0.62;7.30;5.43;;;23.40;19.70;;;;;;2231296;62;20817;-52
2022/03/20 02:36:43;0.00;0.00;0.62;0.00;0.00;0.62;5.87;5.27;;;23.40;19.70;;;;;;2231458;62;20885;-50
2022/03/20 02:39:30;0.00;0.00;0.62;0.00;0.00;0.62;5.63;5.10;;;23.40;19.70;;;;;;2231837;62;20774;-53
2022/03/20 02:42:16;0.00;0.00;0.62;0.00;0.00;0.62;5.90;5.40;;;23.40;19.70;;;;;;2231784;62;20395;-50
2022/03/20 02:45:03;0.00;0.00;0.62;0.00;0.00;0.62;9.30;5.53;;;23.40;19.80;;;;;;2232049;62;20388;-51
2022/03/20 02:47:50;0.00;0.00;0.62;0.00;0.00;0.62;6.20;5.40;;;23.30;19.70;;;;;;2231929;62;20795;-56
2022/03/20 02:50:37;0.00;0.00;0.62;0.00;0.00;0.62;5.73;5.13;;;23.30;19.70;;;;;;2231969;62;20403;-52
2022/03/20 02:53:22;0.00;0.00;0.62;0.00;0.00;0.62;5.77;5.23;;;23.30;19.70;;;;;;2232035;62;20419;-55
2022/03/20 02:56:08;0.00;0.00;0.62;0.00;0.00;0.62;6.33;5.20;;;23.30;19.70;;;;;;2231168;62;20372;-57
2022/03/20 02:58:53;0.00;0.00;0.62;0.00;0.00;0.62;6.10;5.50;;;23.30;19.70;;;;;;2231941;62;20379;-49
2022/03/20 03:01:38;0.00;0.00;0.62;0.00;0.00;0.62;5.30;4.80;;;23.30;19.70;;;;;;2231321;62;20431;-51
2022/03/20 03:04:23;0.00;0.00;0.62;0.00;0.00;0.62;5.07;4.57;;;23.20;19.60;;;;;;2231841;62;20372;-54
2022/03/20 03:07:08;0.00;0.00;0.62;0.00;0.00;0.62;6.30;5.70;;;23.20;19.70;;;;;;2232053;62;20420;-52
2022/03/20 03:12:57;0.00;0.00;0.62;0.00;0.00;0.62;6.13;5.53;;;23.20;19.60;;;;;;2231538;62;20439;-51
2022/03/20 03:15:42;0.00;0.00;0.62;0.00;0.00;0.62;5.73;5.20;;;23.10;19.60;;;;;;2232055;62;20372;-49
2022/03/20 03:18:27;0.00;0.00;0.62;0.00;0.00;0.62;7.03;6.33;;;23.10;19.60;;;;;;2231719;62;20969;-50
2022/03/20 03:21:14;0.00;0.00;0.62;0.00;0.00;0.62;6.60;5.90;;;23.10;19.60;;;;;;2231645;62;20446;-50
2022/03/20 03:23:59;0.00;0.00;0.62;0.00;0.00;0.62;5.80;5.10;;;23.10;19.60;;;;;;2231850;62;20889;-48
2022/03/20 03:26:44;0.00;0.00;0.62;0.00;0.00;0.62;6.10;5.50;;;23.10;19.60;;;;;;2457390;54;20901;-50
2022/03/20 03:29:30;0.00;0.00;0.62;0.00;0.00;0.62;7.00;6.30;;;23.00;19.50;;;;;;2227936;62;20400;-51
2022/03/20 03:32:15;0.00;0.00;0.62;0.00;0.00;0.62;6.70;6.03;;;23.00;19.50;;;;;;2227715;62;20500;-50
2022/03/20 03:38:04;0.00;0.00;0.62;0.00;0.00;0.62;7.57;6.63;;;23.00;19.50;;;;;;2227674;62;20372;-58
2022/03/20 03:40:50;0.00;0.00;0.62;0.00;0.00;0.62;7.00;5.80;;;22.90;19.50;;;;;;2227511;62;21010;-57
2022/03/20 03:43:36;0.00;0.00;0.62;0.00;0.00;0.62;7.30;6.60;;;22.90;19.50;;;;;;2228002;62;20375;-57
2022/03/20 03:46:22;0.00;0.00;0.62;0.00;0.00;0.62;6.40;5.77;;;22.90;19.50;;;;;;2227561;62;20461;-58
2022/03/20 03:49:07;0.00;0.00;0.62;0.00;0.00;0.62;7.03;6.10;;;22.90;19.50;;;;;;2227721;62;20778;-54
2022/03/20 03:51:51;0.00;0.00;0.62;0.00;0.00;0.62;9.87;5.97;;;22.90;19.50;;;;;;2227792;62;20491;-53
2022/03/20 03:54:36;0.00;0.00;0.62;0.00;0.00;0.62;6.73;5.70;;;22.90;19.50;;;;;;2227610;62;20372;-53
2022/03/20 03:57:02;0.00;0.00;0.62;0.00;0.00;0.62;6.33;5.40;;;22.80;19.40;;;;;;2227838;62;20361;-50
2022/03/20 03:59:47;0.00;0.00;0.62;0.00;0.00;0.62;6.87;6.17;;;22.80;19.40;;;;;;2227534;62;20412;-50
2022/03/20 04:02:33;0.00;0.00;0.62;0.00;0.00;0.62;6.87;6.10;;;22.80;19.40;;;;;;2227396;62;20384;-51
2022/03/20 04:05:19;0.00;0.00;0.62;0.00;0.00;0.62;7.23;6.23;;;22.80;19.40;;;;;;2230551;62;20380;-52
2022/03/20 04:08:07;0.00;0.00;0.62;0.00;0.00;0.62;6.77;6.17;;;22.80;19.40;;;;;;2227703;62;20405;-54
2022/03/20 04:10:51;0.00;0.00;0.62;0.00;0.00;0.62;6.83;6.03;;;22.80;19.40;;;;;;2227494;62;20490;-54
2022/03/20 04:13:36;0.00;0.00;0.62;0.00;0.00;0.62;7.57;6.43;;;22.80;19.30;;;;;;2227597;62;20395;-54
2022/03/20 04:16:20;0.00;0.00;0.62;0.00;0.00;0.62;6.83;6.10;;;22.70;19.30;;;;;;2227782;62;20405;-52
2022/03/20 04:19:06;0.00;0.00;0.62;0.00;0.00;0.62;7.30;6.50;;;22.70;19.30;;;;;;2227991;62;20380;-51
2022/03/20 04:21:51;0.00;0.00;0.62;0.00;0.00;0.62;7.33;6.17;;;22.70;19.20;;;;;;2229966;62;20403;-58
2022/03/20 04:24:36;0.00;0.00;0.62;0.00;0.00;0.62;6.30;5.60;;;22.70;19.20;;;;;;2231313;62;20777;-59
2022/03/20 04:27:21;0.00;0.00;0.62;0.00;0.00;0.62;8.00;6.27;;;22.70;19.80;;;;;;2231746;62;20499;-54
2022/03/20 04:30:09;0.00;0.00;0.62;0.00;0.00;0.62;7.00;6.10;;;22.70;19.20;;;;;;2231278;62;20375;-58
2022/03/20 04:32:55;0.00;0.00;0.62;0.00;0.00;0.62;6.53;5.83;;;22.60;19.20;;;;;;2231470;62;20948;-58
2022/03/20 04:35:41;0.00;0.00;0.62;0.00;0.00;0.62;8.10;6.90;;;22.60;19.20;;;;;;2232506;62;20960;-51
2022/03/20 04:38:26;0.00;0.00;0.62;0.00;0.00;0.62;9.70;7.30;;;22.60;19.20;;;;;;2231450;62;20375;-49
2022/03/20 04:41:10;0.00;0.00;0.62;0.00;0.00;0.62;9.53;6.37;;;22.60;19.20;;;;;;2231621;62;20996;-49
2022/03/20 04:43:58;0.00;0.00;0.62;0.00;0.00;0.62;6.70;6.00;;;22.60;19.30;;;;;;2231934;62;20897;-51
2022/03/20 04:46:43;0.00;0.00;0.62;0.00;0.00;0.62;7.70;6.30;;;22.50;19.20;;;;;;2230982;62;20443;-50
2022/03/20 04:58:40;0.00;0.00;0.62;0.00;0.00;0.62;7.57;6.80;;;22.40;19.10;;;;;;2231696;62;20367;-51
2022/03/20 05:01:24;0.00;0.00;0.62;0.00;0.00;0.62;8.13;6.90;;;22.40;19.10;;;;;;2231003;62;20426;-52
2022/03/20 05:04:09;0.00;0.00;0.62;0.00;0.00;0.62;8.17;7.37;;;22.40;19.10;;;;;;2231806;62;20777;-52
2022/03/20 05:06:54;0.00;0.00;0.62;0.00;0.00;0.62;8.57;7.03;;;22.40;19.10;;;;;;2231906;62;20396;-58
2022/03/20 05:15:52;0.00;0.00;0.62;0.00;0.00;0.62;7.17;6.47;;;22.30;19.00;;;;;;2231395;62;20466;-54
2022/03/20 05:18:37;0.00;0.00;0.62;0.00;0.00;0.62;7.30;6.60;;;22.30;19.10;;;;;;2231194;62;20375;-52
2022/03/20 05:21:21;0.00;0.00;0.62;0.00;0.00;0.62;9.30;7.30;;;22.30;19.10;;;;;;2231579;62;20416;-52
2022/03/20 05:24:09;0.00;0.00;0.62;0.00;0.00;0.62;7.57;6.80;;;22.30;19.10;;;;;;2230905;62;20371;-52
2022/03/20 05:26:55;0.00;0.00;0.62;0.00;0.00;0.62;7.87;7.07;;;22.30;19.00;;;;;;2233991;62;20472;-53
2022/03/20 05:29:40;0.00;0.00;0.62;0.00;0.00;0.62;7.40;6.70;;;22.20;19.00;;;;;;2231357;62;20371;-52
2022/03/20 05:32:25;0.00;0.00;0.62;0.00;0.00;0.62;7.57;6.80;;;22.20;19.00;;;;;;2231210;62;20844;-52
2022/03/20 05:35:11;0.00;0.00;0.62;0.00;0.00;0.62;8.37;7.50;;;22.20;19.00;;;;;;2231675;62;20371;-53
2022/03/20 05:37:56;0.00;0.00;0.62;0.00;0.00;0.62;7.70;6.87;;;22.20;19.00;;;;;;2231271;62;20896;-52
2022/03/20 05:40:42;0.00;0.00;0.62;0.00;0.00;0.62;8.27;6.70;;;22.20;19.10;;;;;;2231318;62;20379;-50
2022/03/20 05:43:28;0.00;0.00;0.62;0.00;0.00;0.62;8.70;7.17;;;22.10;19.00;;;;;;2231467;62;20465;-49
2022/03/20 05:46:13;0.00;0.00;0.62;0.00;0.00;0.62;8.83;8.00;;;22.10;19.00;;;;;;2231047;62;20404;-51
2022/03/20 05:48:58;0.00;0.00;0.62;0.00;0.00;0.62;8.67;7.80;;;22.10;18.90;;;;;;2231562;62;20443;-57
2022/03/20 05:51:43;0.00;0.00;0.62;0.00;0.00;0.62;8.10;7.30;;;22.10;18.90;;;;;;2231295;62;20959;-50
2022/03/20 05:54:27;0.00;0.00;0.62;0.00;0.00;0.62;8.60;6.73;;;22.10;18.90;;;;;;2231341;62;20391;-51
2022/03/20 06:00:17;0.00;0.00;0.62;0.00;0.00;0.62;8.30;7.50;;;22.10;19.00;;;;;;2231061;62;20367;-55
2022/03/20 06:03:02;0.00;0.00;0.62;0.00;0.00;0.62;9.20;7.33;;;22.10;18.80;;;;;;2232411;62;20419;-50
2022/03/20 06:05:47;0.00;0.00;0.62;0.00;0.00;0.62;8.03;7.23;;;22.00;18.70;;;;;;2232162;62;20463;-51
2022/03/20 06:08:32;0.00;0.00;0.62;0.00;0.00;0.62;10.67;6.70;;;22.00;18.60;;;;;;2231812;62;20422;-56
2022/03/20 06:11:17;0.00;0.00;0.62;0.00;0.00;0.62;7.50;6.13;;;22.00;18.60;;;;;;2234326;62;20979;-53
2022/03/20 06:14:02;0.00;0.00;0.62;0.00;0.00;0.62;7.97;7.00;;;22.00;18.60;;;;;;2231952;62;20383;-51
2022/03/20 06:16:49;0.00;0.00;0.62;0.00;0.00;0.62;8.70;7.80;;;22.00;19.20;;;;;;2234037;62;20896;-51
2022/03/20 06:19:34;0.00;0.00;0.62;0.00;0.00;0.62;7.27;6.57;;;22.00;18.60;;;;;;2231468;62;20434;-50
2022/03/20 06:22:19;0.00;0.00;0.62;0.00;0.00;0.62;10.43;7.40;;;22.00;18.60;;;;;;2231936;62;20972;-54
2022/03/20 06:25:08;0.00;0.00;0.62;0.00;0.00;0.62;8.77;7.67;;;22.00;18.70;;;;;;2232158;62;20379;-53
2022/03/20 06:27:56;0.00;0.00;0.62;0.00;0.00;0.62;8.07;7.20;;;21.90;18.60;;;;;;2232111;62;20419;-50
2022/03/20 06:30:43;0.00;0.00;0.62;0.00;0.00;0.62;9.23;8.27;;;21.90;18.60;;;;;;2231332;62;20375;-57
2022/03/20 06:33:29;0.00;0.00;0.62;0.00;0.00;0.62;9.70;7.80;;;21.90;18.60;;;;;;2231929;62;20871;-54
2022/03/20 06:36:14;0.00;0.00;0.62;0.00;0.00;0.62;8.30;7.27;;;21.90;18.60;;;;;;2231993;62;20407;-52
2022/03/20 06:38:59;0.00;0.00;0.62;0.00;0.00;0.62;9.30;7.67;;;21.80;18.60;;;;;;2231790;62;20394;-52
2022/03/20 06:41:44;0.00;0.00;0.62;0.00;0.00;0.62;9.00;7.83;;;21.80;18.60;;;;;;2232108;62;20395;-50
2022/03/20 06:44:28;0.00;0.00;0.62;0.00;0.00;0.62;8.10;7.30;;;21.80;18.60;;;;;;2231983;62;20367;-52
2022/03/20 06:47:13;0.00;0.00;0.62;0.00;0.00;0.62;8.93;8.00;;;21.80;18.60;;;;;;2232128;62;20403;-53
2022/03/20 06:50:00;0.00;0.00;0.62;0.00;0.00;0.62;8.70;7.80;;;21.80;18.60;;;;;;2231914;62;20371;-54
2022/03/20 06:52:44;0.00;0.00;0.62;0.00;0.00;0.62;10.53;7.90;;;21.80;18.60;;;;;;2231410;62;20495;-50
2022/03/20 06:55:30;0.00;0.00;0.62;0.00;0.00;0.62;9.67;8.63;;;21.80;18.60;;;;;;2232382;62;20455;-51
2022/03/20 06:58:17;0.00;0.00;0.62;0.00;0.00;0.62;10.43;8.60;;;21.80;18.60;;;;;;2231920;62;20371;-49
2022/03/20 07:01:01;0.00;0.00;0.62;0.00;0.00;0.62;8.23;7.43;;;21.70;18.50;;;;;;2231544;62;21036;-51
2022/03/20 07:03:46;0.00;0.00;0.62;0.00;0.00;0.62;8.20;7.40;;;21.70;18.50;;;;;;2232065;62;20370;-50
2022/03/20 07:06:33;0.00;0.00;0.62;0.00;0.00;0.62;11.17;7.97;;;21.70;18.50;;;;;;2231957;62;20427;-49
2022/03/20 07:09:18;0.00;0.00;0.62;0.00;0.00;0.62;8.93;8.03;;;21.70;18.50;;;;;;2231947;62;20376;-51
2022/03/20 07:12:04;0.00;0.00;0.62;0.00;0.00;0.62;8.97;8.07;;;21.70;18.50;;;;;;2231894;62;20440;-52
2022/03/20 07:14:49;0.00;0.00;0.62;0.00;0.00;0.62;9.27;8.27;;;21.70;18.50;;;;;;2231129;62;20483;-52
2022/03/20 07:17:37;0.00;0.00;0.62;0.00;0.00;0.62;9.20;7.60;;;21.60;18.50;;;;;;2231769;62;20817;-54
2022/03/20 07:20:22;0.00;0.00;0.62;0.00;0.00;0.62;9.40;8.07;;;21.60;18.50;;;;;;2231713;62;20946;-50
2022/03/20 07:23:11;0.00;0.00;0.62;0.00;0.00;0.62;9.83;7.97;;;21.70;18.50;;;;;;2464361;54;20919;-49
2022/03/20 07:32:06;0.00;0.00;0.62;0.00;0.00;0.62;8.80;8.00;;;21.60;18.50;;;;;;2228306;62;20480;-50
2022/03/20 07:34:52;0.00;0.00;0.62;0.00;0.00;0.62;9.37;7.60;;;21.60;18.50;;;;;;2228216;62;20910;-49
2022/03/20 07:37:39;0.00;0.00;0.62;0.00;0.00;0.62;9.67;8.67;;;21.60;18.50;;;;;;2227452;62;20424;-49
2022/03/20 07:40:24;0.00;0.00;0.62;0.00;0.00;0.62;9.17;8.17;;;21.60;18.50;;;;;;2227880;62;20417;-49
2022/03/20 07:43:09;0.00;0.00;0.62;0.00;0.00;0.62;9.43;7.53;;;21.50;18.50;;;;;;2227869;62;20376;-50
2022/03/20 07:45:56;0.00;0.00;0.62;0.00;0.00;0.62;8.83;7.63;;;21.50;18.50;;;;;;2227575;62;20367;-50
2022/03/20 07:48:41;0.00;0.00;0.62;0.00;0.00;0.62;8.60;7.80;;;21.50;18.50;;;;;;2228026;62;20812;-50
2022/03/20 07:51:26;0.00;0.00;0.62;0.00;0.00;0.62;9.83;7.77;;;21.50;18.50;;;;;;2227624;62;20432;-49
2022/03/20 07:54:11;0.00;0.00;0.62;0.00;0.00;0.62;10.57;9.00;;;21.50;18.50;;;;;;2228018;62;20455;-50
2022/03/20 07:56:57;0.00;0.00;0.62;0.00;0.00;0.62;10.53;9.20;;;21.50;18.50;;;;;;2227835;62;20829;-51
2022/03/20 07:59:42;0.00;0.00;0.62;0.00;0.00;0.62;9.23;8.33;;;21.50;18.50;;;;;;2227566;62;20400;-56
2022/03/20 08:02:26;0.00;0.00;0.62;0.00;0.00;0.62;10.87;8.50;;;21.50;18.40;;;;;;2227797;62;20455;-51
2022/03/20 08:05:11;0.00;0.00;0.62;0.00;0.00;0.62;12.40;8.87;;;21.50;18.40;;;;;;2227766;62;20372;-50
2022/03/20 08:07:56;0.00;0.00;0.62;0.00;0.00;0.62;10.50;9.30;;;21.50;18.40;;;;;;2227871;62;20476;-49
2022/03/20 08:10:41;0.00;0.00;0.62;0.00;0.00;0.62;10.50;8.83;;;21.40;18.30;;;;;;2227888;62;20424;-56
2022/03/20 08:13:30;0.00;0.00;0.62;0.00;0.00;0.62;10.47;9.40;;;21.40;18.30;;;;;;2227667;62;20484;-53
2022/03/20 08:16:16;0.00;0.00;0.62;0.00;0.00;0.62;10.40;9.17;;;21.40;18.30;;;;;;2228199;62;20444;-54
2022/03/20 08:19:01;0.00;0.00;0.62;0.00;0.00;0.62;10.50;9.40;;;21.40;18.20;;;;;;2227743;62;20363;-52
2022/03/20 08:21:48;0.00;0.00;0.62;0.00;0.00;0.62;10.20;9.17;;;21.40;18.20;;;;;;2227494;62;20415;-51
2022/03/20 08:24:32;0.00;0.00;0.62;0.00;0.00;0.62;10.77;9.37;;;21.40;18.30;;;;;;2227878;62;20786;-50
2022/03/20 08:27:19;0.00;0.00;0.62;0.00;0.00;0.62;13.17;9.27;;;21.40;18.30;;;;;;2227424;62;20372;-47
2022/03/20 08:30:11;0.00;0.00;0.62;0.00;0.00;0.62;10.70;9.63;;;21.40;18.30;;;;;;2229699;62;20420;-50
2022/03/20 08:32:56;0.00;0.00;0.62;0.00;0.00;0.62;12.67;11.23;;;21.40;18.30;;;;;;2227740;62;20909;-50
2022/03/20 08:35:41;0.00;0.00;0.62;0.00;0.00;0.62;13.40;11.20;;;21.40;18.20;;;;;;2230006;62;20488;-52
2022/03/20 08:38:26;0.00;0.00;0.62;0.00;0.00;0.62;11.23;10.13;;;21.40;18.20;;;;;;2230486;62;20794;-53
2022/03/20 08:41:11;0.00;0.00;0.62;0.00;0.00;0.62;12.20;10.10;;;21.40;18.20;;;;;;2227769;62;20388;-52
2022/03/20 08:43:55;0.00;0.00;0.62;0.00;0.00;0.62;15.07;11.57;;;21.40;18.10;;;;;;2227472;62;20367;-51
2022/03/20 08:46:41;0.00;0.00;0.62;0.00;0.00;0.62;12.10;9.50;;;21.40;18.00;;;;;;2227879;62;20420;-51
2022/03/20 08:49:26;0.00;0.00;0.62;0.00;0.00;0.62;11.13;9.57;;;21.30;17.90;;;;;;2227604;62;20447;-55
2022/03/20 08:52:11;0.00;0.00;0.62;0.00;0.00;0.62;12.53;11.23;;;21.30;18.00;;;;;;2227716;62;21010;-53
2022/03/20 08:54:56;0.00;0.00;0.62;0.00;0.00;0.62;12.73;10.83;;;21.30;18.00;;;;;;2227601;62;20451;-56
2022/03/20 08:57:44;0.00;0.00;0.62;0.00;0.00;0.62;10.23;8.90;;;21.30;18.00;;;;;;2227549;62;20409;-55
2022/03/20 09:00:29;0.00;0.00;0.62;0.00;0.00;0.62;10.70;8.83;;;21.40;18.10;;;;;;2227868;62;20375;-56
2022/03/20 09:03:15;0.00;0.00;0.62;0.00;0.00;0.62;9.63;8.63;;;21.40;18.10;;;;;;2227853;62;20441;-55
2022/03/20 09:05:59;0.00;0.00;0.62;0.00;0.00;0.62;12.40;10.20;;;21.30;18.00;;;;;;2227302;62;20432;-57
2022/03/20 09:08:44;0.00;0.00;0.62;0.00;0.00;0.62;9.57;8.60;;;21.40;18.20;;;;;;2227979;62;20407;-59
2022/03/20 09:11:28;0.00;0.00;0.62;0.00;0.00;0.62;11.37;9.23;;;21.40;18.20;;;;;;2228027;62;20392;-52
2022/03/20 09:14:13;0.00;0.00;0.62;0.00;0.00;0.62;11.27;8.57;;;21.40;18.10;;;;;;2227904;62;21009;-50
2022/03/20 09:20:04;0.00;0.00;0.62;0.00;0.00;0.62;13.67;9.77;;;21.40;18.00;;;;;;2231539;62;20419;-60
2022/03/20 09:22:49;0.00;0.00;0.62;0.00;0.00;0.62;10.87;9.37;;;21.50;18.60;;;;;;2231628;62;20435;-54
2022/03/20 09:25:34;0.00;0.00;0.62;0.00;0.00;0.62;10.57;9.57;;;21.40;18.00;;;;;;2232043;62;20764;-54
2022/03/20 09:28:21;0.00;0.00;0.62;0.00;0.00;0.62;10.30;8.93;;;21.40;18.00;;;;;;2231678;62;20443;-51
2022/03/20 09:31:08;0.00;0.00;0.62;0.00;0.00;0.62;9.87;8.70;;;21.50;18.50;;;;;;2231740;62;20443;-54
2022/03/20 09:33:53;0.00;0.00;0.62;0.00;0.00;0.62;9.33;7.90;;;21.50;18.10;;;;;;2231471;62;20819;-49
2022/03/20 09:36:39;0.00;0.00;0.62;0.00;0.00;0.62;9.27;8.27;;;21.50;18.10;;;;;;2231200;62;20407;-51
2022/03/20 09:39:26;0.00;0.00;0.62;0.00;0.00;0.62;9.60;8.60;;;21.50;18.10;;;;;;2232037;62;20375;-49
2022/03/20 09:42:11;0.00;0.00;0.62;0.00;0.00;0.62;10.73;9.40;;;21.60;18.00;;;;;;2233928;62;20792;-52
2022/03/20 09:44:56;0.00;0.00;0.62;0.00;0.00;0.62;11.30;8.53;;;21.60;18.10;;;;;;2231901;62;20779;-52
2022/03/20 09:47:42;0.00;0.00;0.62;0.00;0.00;0.62;9.43;8.50;;;21.60;18.10;;;;;;2231923;62;20371;-51
2022/03/20 09:50:26;0.00;0.00;0.62;0.00;0.00;0.62;9.43;8.43;;;21.70;18.20;;;;;;2231050;62;20379;-50
2022/03/20 09:53:12;0.00;0.00;0.62;0.00;0.00;0.62;10.87;8.50;;;21.70;18.20;;;;;;2232200;62;20920;-59
2022/03/20 09:55:57;0.00;0.00;0.62;0.00;0.00;0.62;9.93;8.47;;;21.70;18.20;;;;;;2231898;62;20419;-50
2022/03/20 09:58:42;0.00;0.00;0.62;0.00;0.00;0.62;9.47;8.47;;;21.70;18.20;;;;;;2231672;62;20370;-51
2022/03/20 10:01:26;0.00;0.00;0.62;0.00;0.00;0.62;9.37;8.47;;;21.70;18.20;;;;;;2231684;62;20935;-55
2022/03/20 10:04:14;0.00;0.00;0.62;0.00;0.00;0.62;8.80;7.60;;;21.80;18.20;;;;;;2231281;62;20455;-55
2022/03/20 10:06:59;0.00;0.00;0.62;0.00;0.00;0.62;14.93;9.17;;;21.80;18.20;;;;;;2231648;62;20367;-49
2022/03/20 10:10:05;0.00;0.00;0.62;0.00;0.00;0.62;8.67;7.60;;;21.80;18.20;;;;;;2231289;62;20420;-57
2022/03/20 10:12:53;0.00;0.00;0.62;0.00;0.00;0.62;7.70;7.00;;;21.80;18.10;;;;;;2230355;62;20479;-57
2022/03/20 10:15:40;0.00;0.00;0.62;0.00;0.00;0.62;12.13;9.93;;;21.90;18.20;;;;;;2231531;62;20471;-58
2022/03/20 10:18:24;0.00;0.00;0.62;0.00;0.00;0.62;10.60;9.50;;;21.90;18.10;;;;;;2231238;62;20411;-50
2022/03/20 10:21:09;0.00;0.00;0.62;0.00;0.00;0.62;9.40;8.50;;;21.90;18.10;;;;;;2233640;62;20472;-52
2022/03/20 10:23:57;0.00;0.00;0.62;0.00;0.00;0.62;10.27;8.00;;;22.00;18.20;;;;;;2232030;62;20387;-61
2022/03/20 10:26:43;0.00;0.00;0.62;0.00;0.00;0.62;9.60;8.60;;;22.00;18.20;;;;;;2233782;62;20367;-61
2022/03/20 10:29:31;0.00;0.00;0.62;0.00;0.00;0.62;10.10;9.00;;;22.00;18.20;;;;;;2232011;62;20503;-60
2022/03/20 10:32:17;0.00;0.00;0.62;0.00;0.00;0.62;12.23;9.30;;;22.00;18.20;;;;;;2231260;62;20391;-58
2022/03/20 10:35:09;0.00;0.00;0.62;0.00;0.00;0.62;10.73;8.37;;;22.10;18.20;;;;;;2231186;62;20398;-62
2022/03/20 10:37:56;0.00;0.00;0.62;0.00;0.00;0.62;10.97;8.90;;;22.10;18.20;;;;;;2233486;62;20370;-62
2022/03/20 10:40:46;0.00;0.00;0.62;0.00;0.00;0.62;9.40;7.60;;;22.20;18.30;;;;;;2231084;62;20383;-60
2022/03/20 10:43:41;0.00;0.00;0.62;0.00;0.00;0.62;9.47;8.17;;;22.20;18.30;;;;;;2231267;62;20367;-60
2022/03/20 10:46:28;0.00;0.00;0.62;0.00;0.00;0.62;10.33;7.90;;;22.30;18.40;;;;;;2231387;62;20367;-60
2022/03/20 10:49:20;0.00;0.00;0.62;0.00;0.00;0.62;8.30;7.43;;;22.20;18.20;;;;;;2231357;62;20376;-59
2022/03/20 10:52:08;0.00;0.00;0.62;0.00;0.00;0.62;8.37;7.47;;;22.30;18.30;;;;;;2232408;62;20403;-57
2022/03/20 10:54:53;0.00;0.00;0.62;0.00;0.00;0.62;9.63;8.67;;;22.40;18.40;;;;;;2231926;62;20488;-61
2022/03/20 10:57:39;0.00;0.00;0.62;0.00;0.00;0.62;9.37;8.10;;;22.40;18.40;;;;;;2231723;62;20891;-61
2022/03/20 11:00:25;0.00;0.00;0.62;0.00;0.00;0.62;10.30;8.90;;;22.40;18.40;;;;;;2231764;62;20415;-64
2022/03/20 11:03:09;0.00;0.00;0.62;0.00;0.00;0.62;9.57;7.47;;;22.50;18.30;;;;;;2234207;62;20375;-51
2022/03/20 11:05:56;0.00;0.00;0.62;0.00;0.00;0.62;10.30;9.30;;;22.50;18.30;;;;;;2231665;62;20378;-57
2022/03/20 11:08:41;0.00;0.00;0.62;0.00;0.00;0.62;8.90;7.83;;;22.60;18.40;;;;;;2231991;62;20532;-59
2022/03/20 11:11:27;0.00;0.00;0.62;0.00;0.00;0.62;7.90;7.10;;;22.60;18.40;;;;;;2231481;62;20591;-59
2022/03/20 11:14:15;0.00;0.00;0.62;0.00;0.00;0.62;8.30;7.10;;;22.60;18.50;;;;;;2234223;62;20412;-59
2022/03/20 11:17:04;0.00;0.00;0.62;0.00;0.00;0.62;7.70;6.43;;;22.70;18.60;;;;;;2231392;62;20375;-53
2022/03/20 11:19:52;0.00;0.00;0.62;0.00;0.00;0.62;8.40;7.57;;;22.70;18.70;;;;;;2231581;62;20418;-48
2022/03/20 11:22:45;0.00;0.00;0.62;0.00;0.00;0.62;7.33;6.60;;;22.70;18.80;;;;;;2231287;62;20394;-57
2022/03/20 11:25:32;0.00;0.00;0.62;0.00;0.00;0.62;8.80;6.20;;;22.80;19.00;;;;;;2533354;46;20491;-52
2022/03/20 11:28:18;0.00;0.00;0.62;0.00;0.00;0.62;7.07;6.37;;;22.90;19.10;;;;;;2231820;62;20411;-53